createdAt,value
2023-05-12T00:01:47.777Z,101157.85
2023-05-12T00:05:17.915Z,101157.28
2023-05-12T00:08:46.030Z,101155.48
2023-05-12T00:12:16.762Z,101156.84
2023-05-12T00:15:43.876Z,101155.29
2023-05-12T00:19:12.396Z,101151.39
2023-05-12T00:22:39.592Z,101153.46
2023-05-12T00:26:06.600Z,101154.50
2023-05-12T00:29:33.929Z,101158.12
2023-05-12T00:33:01.883Z,101158.50
2023-05-12T00:36:30.788Z,101162.20
2023-05-12T00:39:58.003Z,101161.97
2023-05-12T00:43:25.352Z,101162.41
2023-05-12T00:46:52.732Z,101164.73
2023-05-12T00:50:19.754Z,101164.81
2023-05-12T00:53:51.101Z,101166.84
2023-05-12T00:57:20.539Z,101169.91
2023-05-12T01:00:48.073Z,101173.16
2023-05-12T01:04:15.745Z,101170.29
2023-05-12T01:07:43.922Z,101172.80
2023-05-12T01:11:11.297Z,101173.39
2023-05-12T01:14:39.070Z,101170.79
2023-05-12T01:18:08.876Z,101173.38
2023-05-12T01:21:37.260Z,101172.89
2023-05-12T01:25:07.854Z,101176.77
2023-05-12T01:28:36.220Z,101179.89
2023-05-12T01:32:04.445Z,101177.73
2023-05-12T01:35:32.574Z,101179.88
2023-05-12T01:39:01.861Z,101182.88
2023-05-12T01:42:29.573Z,101180.27
2023-05-12T01:45:59.683Z,101182.14
2023-05-12T01:49:27.122Z,101184.76
2023-05-12T01:52:55.307Z,101184.03
2023-05-12T01:56:23.269Z,101186.25
2023-05-12T01:59:50.182Z,101188.80
2023-05-12T02:03:18.889Z,101189.28
2023-05-12T02:06:46.722Z,101188.79
2023-05-12T02:10:14.311Z,101194.68
2023-05-12T02:13:42.035Z,101194.96
2023-05-12T02:17:09.151Z,101196.27
2023-05-12T02:20:36.474Z,101198.69
2023-05-12T02:24:04.076Z,101197.69
2023-05-12T02:27:32.672Z,101197.46
2023-05-12T02:30:59.876Z,101196.34
2023-05-12T02:34:28.260Z,101199.57
2023-05-12T02:37:57.166Z,101198.23
2023-05-12T02:41:24.221Z,101202.29
2023-05-12T02:44:51.559Z,101203.58
2023-05-12T02:48:18.692Z,101205.36
2023-05-12T02:51:48.817Z,101207.33
2023-05-12T02:55:15.393Z,101204.45
2023-05-12T02:58:42.261Z,101207.13
2023-05-12T03:02:09.351Z,101208.72
2023-05-12T03:05:36.390Z,101208.26
2023-05-12T03:09:04.470Z,101208.65
2023-05-12T03:12:31.818Z,101209.77
2023-05-12T03:16:02.228Z,101210.67
2023-05-12T03:19:30.211Z,101209.96
2023-05-12T03:22:57.496Z,101212.43
2023-05-12T03:26:25.140Z,101210.38
2023-05-12T03:29:52.311Z,101212.21
2023-05-12T03:33:19.232Z,101213.64
2023-05-12T03:36:47.705Z,101216.44
2023-05-12T03:40:19.263Z,101220.76
2023-05-12T03:43:47.530Z,101225.89
2023-05-12T03:47:15.273Z,101228.09
2023-05-12T03:50:43.174Z,101229.08
2023-05-12T03:54:11.440Z,101235.23
2023-05-12T03:57:38.689Z,101241.23
2023-05-12T04:01:05.969Z,101239.83
2023-05-12T04:04:32.888Z,101246.75
2023-05-12T04:07:59.485Z,101247.69
2023-05-12T04:11:26.474Z,101248.59
2023-05-12T04:14:53.532Z,101246.98
2023-05-12T04:18:20.490Z,101249.43
2023-05-12T04:21:47.723Z,101251.86
2023-05-12T04:25:14.518Z,101254.43
2023-05-12T04:28:41.478Z,101255.88
2023-05-12T04:32:10.440Z,101255.46
2023-05-12T04:35:37.830Z,101256.88
2023-05-12T04:39:05.791Z,101257.98
2023-05-12T04:42:33.195Z,101259.77
2023-05-12T04:46:03.516Z,101261.69
2023-05-12T04:49:31.393Z,101256.65
2023-05-12T04:52:58.692Z,101263.48
2023-05-12T04:56:25.794Z,101265.69
2023-05-12T04:59:53.818Z,101273.59
2023-05-12T05:03:21.358Z,101275.13
2023-05-12T05:06:50.038Z,101274.68
2023-05-12T05:10:18.821Z,101271.94
2023-05-12T05:13:45.945Z,101274.62
2023-05-12T05:17:13.667Z,101274.77
2023-05-12T05:20:45.038Z,101279.98
2023-05-12T05:24:15.183Z,101284.78
2023-05-12T05:27:42.386Z,101284.17
2023-05-12T05:31:09.389Z,101286.81
2023-05-12T05:34:36.608Z,101288.92
2023-05-12T05:38:04.041Z,101292.71
2023-05-12T05:41:32.493Z,101293.23
2023-05-12T05:44:59.362Z,101294.57
2023-05-12T05:48:26.174Z,101300.82
2023-05-12T05:51:54.017Z,101306.36
2023-05-12T05:55:21.669Z,101304.54
2023-05-12T05:58:50.431Z,101308.59
2023-05-12T06:02:17.736Z,101312.15
2023-05-12T06:05:44.960Z,101310.30
2023-05-12T06:09:13.141Z,101311.61
2023-05-12T06:12:41.130Z,101314.95
2023-05-12T06:16:08.713Z,101316.70
2023-05-12T06:19:35.408Z,101320.08
2023-05-12T06:23:03.119Z,101317.11
2023-05-12T06:26:31.645Z,101321.98
2023-05-12T06:29:58.346Z,101326.80
2023-05-12T06:33:25.537Z,101328.50
2023-05-12T06:36:54.907Z,101331.14
2023-05-12T06:40:25.448Z,101334.63
2023-05-12T06:43:53.669Z,101336.00
2023-05-12T06:47:27.726Z,101340.00
2023-05-12T06:50:59.416Z,101339.52
2023-05-12T06:54:28.879Z,101339.96
2023-05-12T06:57:58.709Z,101339.98
2023-05-12T07:01:26.036Z,101336.70
2023-05-12T07:04:53.719Z,101337.67
2023-05-12T07:08:20.883Z,101341.65
2023-05-12T07:11:49.067Z,101346.79
2023-05-12T07:15:16.793Z,101345.44
2023-05-12T07:18:44.539Z,101345.21
2023-05-12T07:22:11.700Z,101347.67
2023-05-12T07:25:39.600Z,101343.80
2023-05-12T07:29:07.607Z,101343.98
2023-05-12T07:32:34.685Z,101346.27
2023-05-12T07:36:01.922Z,101346.38
2023-05-12T07:39:29.826Z,101346.46
2023-05-12T07:42:57.378Z,101349.99
2023-05-12T07:46:24.188Z,101342.29
2023-05-12T07:49:51.709Z,101348.10
2023-05-12T07:53:19.414Z,101343.71
2023-05-12T07:56:46.755Z,101340.83
2023-05-12T08:00:16.774Z,101346.34
2023-05-12T08:03:46.963Z,101342.77
2023-05-12T08:07:19.389Z,101344.63
2023-05-12T08:10:46.973Z,101341.30
2023-05-12T08:14:14.961Z,101336.05
2023-05-12T08:17:43.452Z,101333.13
2023-05-12T08:21:11.561Z,101334.01
2023-05-12T08:24:38.625Z,101330.94
2023-05-12T08:28:05.406Z,101329.14
2023-05-12T08:31:32.310Z,101327.84
2023-05-12T08:34:59.553Z,101328.91
2023-05-12T08:38:26.895Z,101330.77
2023-05-12T08:42:02.632Z,101330.45
2023-05-12T08:45:30.093Z,101327.41
2023-05-12T08:48:59.100Z,101325.98
2023-05-12T08:52:26.225Z,101330.27
2023-05-12T08:57:08.854Z,101330.32
2023-05-12T08:59:45.242Z,101328.07
2023-05-12T09:03:14.728Z,101325.62
2023-05-12T09:06:44.010Z,101330.52
2023-05-12T09:10:29.877Z,101323.40
2023-05-12T09:14:05.001Z,101330.02
2023-05-12T09:17:31.966Z,101326.74
2023-05-12T09:20:58.644Z,101322.09
2023-05-12T09:24:37.796Z,101320.21
2023-05-12T09:28:05.347Z,101312.63
2023-05-12T09:31:32.051Z,101308.95
2023-05-12T09:34:58.987Z,101305.27
2023-05-12T09:38:26.515Z,101308.23
2023-05-12T09:41:55.103Z,101314.41
2023-05-12T09:45:23.061Z,101303.15
2023-05-12T09:48:53.581Z,101310.19
2023-05-12T09:52:24.021Z,101311.67
2023-05-12T09:55:52.525Z,101309.87
2023-05-12T09:59:21.512Z,101299.98
2023-05-12T10:02:52.619Z,101300.37
2023-05-12T10:06:25.585Z,101305.81
2023-05-12T10:09:53.236Z,101306.10
2023-05-12T10:13:21.534Z,101301.41
2023-05-12T10:16:49.283Z,101302.18
2023-05-12T10:20:17.629Z,101302.57
2023-05-12T10:23:46.654Z,101306.03
2023-05-12T10:27:17.556Z,101303.88
2023-05-12T10:30:46.791Z,101292.17
2023-05-12T10:34:20.033Z,101292.43
2023-05-12T10:37:48.444Z,101288.84
2023-05-12T10:41:17.130Z,101289.96
2023-05-12T10:44:53.760Z,101295.14
2023-05-12T10:48:20.785Z,101290.37
2023-05-12T10:51:52.057Z,101294.98
2023-05-12T10:55:19.987Z,101288.95
2023-05-12T10:59:10.410Z,101281.48
2023-05-12T11:02:40.111Z,101274.13
2023-05-12T11:06:10.482Z,101278.55
2023-05-12T11:09:50.380Z,101275.56
2023-05-12T11:13:23.400Z,101274.23
2023-05-12T11:16:50.611Z,101269.90
2023-05-12T11:20:30.210Z,101278.39
2023-05-12T11:23:59.043Z,101269.80
2023-05-12T11:27:26.624Z,101282.14
2023-05-12T11:30:55.635Z,101280.84
2023-05-12T11:34:27.370Z,101283.65
2023-05-12T11:37:54.280Z,101279.60
2023-05-12T11:41:26.707Z,101277.42
2023-05-12T11:44:55.693Z,101276.17
2023-05-12T11:48:23.071Z,101280.32
2023-05-12T11:51:52.522Z,101282.59
2023-05-12T11:55:24.594Z,101276.13
2023-05-12T11:58:58.030Z,101280.55
2023-05-12T12:02:25.199Z,101288.48
2023-05-12T12:06:02.976Z,101277.67
2023-05-12T12:09:36.791Z,101288.69
2023-05-12T12:13:06.152Z,101283.27
2023-05-12T12:16:34.977Z,101282.83
2023-05-12T12:20:02.250Z,101272.92
2023-05-12T12:23:33.335Z,101273.21
2023-05-12T12:27:09.045Z,101274.29
2023-05-12T12:30:35.898Z,101267.50
2023-05-12T12:34:02.879Z,101267.52
2023-05-12T12:37:30.503Z,101264.07
2023-05-12T12:40:57.447Z,101270.08
2023-05-12T12:44:24.420Z,101269.23
2023-05-12T12:47:55.020Z,101267.10
2023-05-12T12:51:23.591Z,101268.63
2023-05-12T12:54:53.461Z,101260.23
2023-05-12T12:58:20.707Z,101256.81
2023-05-12T13:01:50.799Z,101252.52
2023-05-12T13:05:18.101Z,101250.48
2023-05-12T13:08:45.929Z,101253.71
2023-05-12T13:12:13.705Z,101249.85
2023-05-12T13:15:41.989Z,101237.67
2023-05-12T13:19:09.250Z,101238.68
2023-05-12T13:22:36.185Z,101241.08
2023-05-12T13:26:03.192Z,101243.98
2023-05-12T13:29:30.537Z,101247.98
2023-05-12T13:32:57.715Z,101244.32
2023-05-12T13:36:24.273Z,101242.63
2023-05-12T13:39:51.829Z,101246.80
2023-05-12T13:43:19.470Z,101241.77
2023-05-12T13:46:46.409Z,101239.27
2023-05-12T13:50:13.803Z,101243.54
2023-05-12T13:53:41.014Z,101240.75
2023-05-12T13:57:14.470Z,101236.09
2023-05-12T14:00:42.030Z,101226.42
2023-05-12T14:04:09.376Z,101237.08
2023-05-12T14:07:35.989Z,101235.17
2023-05-12T14:11:02.801Z,101235.66
2023-05-12T14:14:29.476Z,101228.14
2023-05-12T14:17:56.169Z,101230.59
2023-05-12T14:21:23.805Z,101233.23
2023-05-12T14:24:51.172Z,101230.19
2023-05-12T14:28:18.069Z,101232.29
2023-05-12T14:31:45.249Z,101232.52
2023-05-12T14:35:13.375Z,101235.79
2023-05-12T14:38:40.216Z,101230.61
2023-05-12T14:42:07.424Z,101234.70
2023-05-12T14:45:34.518Z,101236.19
2023-05-12T14:49:01.600Z,101232.70
2023-05-12T14:52:28.074Z,101233.67
2023-05-12T14:55:55.104Z,101235.34
2023-05-12T14:59:22.433Z,101237.70
2023-05-12T15:02:49.689Z,101227.02
2023-05-12T15:06:17.023Z,101229.26
2023-05-12T15:09:44.826Z,101232.14
2023-05-12T15:13:12.916Z,101232.88
2023-05-12T15:16:40.325Z,101234.08
2023-05-12T15:20:10.134Z,101229.04
2023-05-12T15:23:37.437Z,101221.98
2023-05-12T15:27:04.295Z,101228.63
2023-05-12T15:30:36.146Z,101228.13
2023-05-12T15:34:06.449Z,101229.35
2023-05-12T15:37:33.317Z,101227.35
2023-05-12T15:41:02.510Z,101225.02
2023-05-12T15:44:30.660Z,101224.84
2023-05-12T15:48:01.439Z,101232.58
2023-05-12T15:51:30.101Z,101225.80
2023-05-12T15:54:57.259Z,101222.03
2023-05-12T15:58:28.018Z,101223.84
2023-05-12T16:01:55.782Z,101222.54
2023-05-12T16:05:24.270Z,101221.02
2023-05-12T16:08:52.866Z,101215.96
2023-05-12T16:12:20.172Z,101218.83
2023-05-12T16:15:47.322Z,101226.88
2023-05-12T16:19:14.269Z,101222.30
2023-05-12T16:22:42.768Z,101228.03
2023-05-12T16:26:09.974Z,101223.79
2023-05-12T16:29:37.244Z,101222.58
2023-05-12T16:33:04.065Z,101228.34
2023-05-12T16:36:32.419Z,101228.41
2023-05-12T16:39:59.592Z,101227.34
2023-05-12T16:43:26.546Z,101227.96
2023-05-12T16:46:53.738Z,101224.13
2023-05-12T16:50:21.161Z,101224.16
2023-05-12T16:53:48.220Z,101221.76
2023-05-12T16:57:15.482Z,101221.80
2023-05-12T17:00:43.663Z,101219.79
2023-05-12T17:04:12.772Z,101222.02
2023-05-12T17:07:41.258Z,101222.42
2023-05-12T17:11:10.052Z,101224.80
2023-05-12T17:14:37.452Z,101224.42
2023-05-12T17:18:06.493Z,101226.46
2023-05-12T17:21:34.164Z,101229.02
2023-05-12T17:25:03.333Z,101232.73
2023-05-12T17:28:32.164Z,101233.69
2023-05-12T17:32:02.455Z,101233.30
2023-05-12T17:35:30.420Z,101236.30
2023-05-12T17:38:58.517Z,101239.14
2023-05-12T17:42:29.029Z,101245.39
2023-05-12T17:45:55.723Z,101249.66
2023-05-12T17:49:22.687Z,101251.88
2023-05-12T17:52:50.398Z,101255.80
2023-05-12T17:56:17.900Z,101260.04
2023-05-12T17:59:45.339Z,101258.91
2023-05-12T18:03:16.011Z,101264.55
2023-05-12T18:06:42.695Z,101264.62
2023-05-12T18:10:12.614Z,101265.80
2023-05-12T18:13:39.774Z,101268.27
2023-05-12T18:17:06.944Z,101268.96
2023-05-12T18:20:34.250Z,101274.70
2023-05-12T18:24:01.651Z,101275.74
2023-05-12T18:27:29.200Z,101278.54
2023-05-12T18:30:58.061Z,101288.89
2023-05-12T18:34:28.617Z,101292.45
2023-05-12T18:37:56.168Z,101297.54
2023-05-12T18:41:22.981Z,101300.65
2023-05-12T18:44:50.361Z,101304.48
2023-05-12T18:48:17.522Z,101307.27
2023-05-12T18:51:46.015Z,101312.80
2023-05-12T18:55:21.961Z,101319.03
2023-05-12T18:58:51.449Z,101314.81
2023-05-12T19:02:19.486Z,101315.15
2023-05-12T19:05:49.675Z,101323.48
2023-05-12T19:09:24.657Z,101326.50
2023-05-12T19:12:59.366Z,101323.81
2023-05-12T19:16:31.946Z,101323.31
2023-05-12T19:20:03.253Z,101327.69
2023-05-12T19:23:33.470Z,101328.45
2023-05-12T19:27:04.823Z,101335.73
2023-05-12T19:30:36.078Z,101335.85
2023-05-12T19:34:10.686Z,101332.98
2023-05-12T19:37:46.665Z,101338.70
2023-05-12T19:41:19.319Z,101343.57
2023-05-12T19:45:01.297Z,101342.27
2023-05-12T19:48:36.399Z,101345.70
2023-05-12T19:52:14.003Z,101351.30
2023-05-12T19:55:45.497Z,101355.93
2023-05-12T19:59:15.339Z,101355.73
2023-05-12T20:02:46.379Z,101355.05
2023-05-12T20:06:22.487Z,101353.69
2023-05-12T20:09:56.836Z,101359.27
2023-05-12T20:13:29.122Z,101361.19
2023-05-12T20:17:11.332Z,101358.27
2023-05-12T20:20:42.107Z,101357.66
2023-05-12T20:24:16.394Z,101360.60
2023-05-12T20:27:57.171Z,101357.84
2023-05-12T20:31:26.630Z,101357.55
2023-05-12T20:34:55.988Z,101357.56
2023-05-12T20:38:24.501Z,101361.79
2023-05-12T20:42:04.466Z,101363.32
2023-05-12T20:45:34.203Z,101362.48
2023-05-12T20:49:02.062Z,101366.17
2023-05-12T20:52:33.363Z,101369.44
2023-05-12T20:55:59.989Z,101373.71
2023-05-12T20:59:26.852Z,101370.73
2023-05-12T21:02:54.775Z,101372.52
2023-05-12T21:06:22.266Z,101373.65
2023-05-12T21:09:49.802Z,101375.27
2023-05-12T21:13:20.066Z,101369.52
2023-05-12T21:16:49.280Z,101372.48
2023-05-12T21:20:16.731Z,101379.84
2023-05-12T21:23:45.476Z,101379.21
2023-05-12T21:27:13.159Z,101382.14
2023-05-12T21:30:43.897Z,101383.94
2023-05-12T21:34:13.049Z,101379.46
2023-05-12T21:37:54.173Z,101386.02
2023-05-12T21:41:21.755Z,101386.77
2023-05-12T21:44:50.856Z,101386.83
2023-05-12T21:48:18.168Z,101389.13
2023-05-12T21:51:45.096Z,101392.81
2023-05-12T21:55:15.308Z,101394.98
2023-05-12T21:58:43.136Z,101400.86
2023-05-12T22:02:11.700Z,101397.59
2023-05-12T22:05:39.259Z,101401.92
2023-05-12T22:09:06.131Z,101401.92
2023-05-12T22:12:33.750Z,101396.09
2023-05-12T22:16:01.562Z,101399.77
2023-05-12T22:19:29.232Z,101394.75
2023-05-12T22:22:56.361Z,101392.28
2023-05-12T22:26:23.604Z,101391.94
2023-05-12T22:29:50.611Z,101397.34
2023-05-12T22:33:18.637Z,101396.14
2023-05-12T22:36:45.385Z,101398.52
2023-05-12T22:40:14.177Z,101401.35
2023-05-12T22:43:41.706Z,101404.55
2023-05-12T22:47:09.822Z,101407.55
2023-05-12T22:50:36.631Z,101409.14
2023-05-12T22:54:07.737Z,101409.02
2023-05-12T22:57:34.935Z,101410.19
2023-05-12T23:01:06.220Z,101408.71
2023-05-12T23:04:40.530Z,101404.93
2023-05-12T23:08:08.346Z,101409.12
2023-05-12T23:11:35.441Z,101404.19
2023-05-12T23:15:03.272Z,101403.81
2023-05-12T23:18:34.424Z,101411.85
2023-05-12T23:22:01.747Z,101411.76
2023-05-12T23:25:28.694Z,101414.77
2023-05-12T23:28:56.049Z,101410.52
2023-05-12T23:32:24.077Z,101414.09
2023-05-12T23:35:52.387Z,101411.35
2023-05-12T23:39:19.509Z,101410.96
2023-05-12T23:42:47.561Z,101410.42
2023-05-12T23:46:14.800Z,101413.44
2023-05-12T23:49:43.883Z,101414.36
2023-05-12T23:53:11.791Z,101414.53
2023-05-12T23:56:41.444Z,101412.86
